createdAt,value
2022-10-06T00:01:12.408Z,6.27
2022-10-06T00:03:40.109Z,7.22
2022-10-06T00:06:08.519Z,6.08
2022-10-06T00:08:38.514Z,7.22
2022-10-06T00:11:07.504Z,6.08
2022-10-06T00:13:35.580Z,7.03
2022-10-06T00:16:04.511Z,6.27
2022-10-06T00:18:31.615Z,5.89
2022-10-06T00:21:01.518Z,6.46
2022-10-06T00:23:29.849Z,7.22
2022-10-06T00:25:57.053Z,7.03
2022-10-06T00:28:23.883Z,5.89
2022-10-06T00:30:53.517Z,6.84
2022-10-06T00:33:20.951Z,6.27
2022-10-06T00:35:48.188Z,6.27
2022-10-06T00:38:17.306Z,6.65
2022-10-06T00:40:52.976Z,6.27
2022-10-06T00:43:40.975Z,6.65
2022-10-06T00:46:17.005Z,7.03
2022-10-06T00:48:47.709Z,6.65
2022-10-06T00:51:15.251Z,6.46
2022-10-06T00:53:43.006Z,7.03
2022-10-06T00:56:10.235Z,6.46
2022-10-06T00:58:38.264Z,7.03
2022-10-06T01:01:05.647Z,6.46
2022-10-06T01:03:39.329Z,6.65
2022-10-06T01:06:06.738Z,6.46
2022-10-06T01:08:34.914Z,6.46
2022-10-06T01:11:02.273Z,6.08
2022-10-06T01:13:30.558Z,7.03
2022-10-06T01:16:11.680Z,6.27
2022-10-06T01:18:42.613Z,5.32
2022-10-06T01:21:23.965Z,6.84
2022-10-06T01:23:50.986Z,6.65
2022-10-06T01:26:20.505Z,6.27
2022-10-06T01:28:48.529Z,6.84
2022-10-06T01:31:15.998Z,6.46
2022-10-06T01:33:42.755Z,6.27
2022-10-06T01:36:09.560Z,6.46
2022-10-06T01:38:36.756Z,6.65
2022-10-06T01:41:03.805Z,6.08
2022-10-06T01:43:30.503Z,6.27
2022-10-06T01:45:58.794Z,6.84
2022-10-06T01:48:27.289Z,6.08
2022-10-06T01:50:55.175Z,6.27
2022-10-06T01:53:22.713Z,7.41
2022-10-06T01:55:49.331Z,5.89
2022-10-06T01:58:16.117Z,6.46
2022-10-06T02:00:42.867Z,6.08
2022-10-06T02:03:09.579Z,6.65
2022-10-06T02:05:36.425Z,7.03
2022-10-06T02:08:03.804Z,6.84
2022-10-06T02:10:30.975Z,6.46
2022-10-06T02:12:57.622Z,6.84
2022-10-06T02:15:26.908Z,6.84
2022-10-06T02:17:55.719Z,6.65
2022-10-06T02:20:22.427Z,6.84
2022-10-06T02:22:49.474Z,6.46
2022-10-06T02:25:17.253Z,6.65
2022-10-06T02:27:44.373Z,7.41
2022-10-06T02:30:14.521Z,6.65
2022-10-06T02:32:42.782Z,6.65
2022-10-06T02:35:12.855Z,6.84
2022-10-06T02:37:41.541Z,7.60
2022-10-06T02:40:10.064Z,7.22
2022-10-06T02:42:38.113Z,7.22
2022-10-06T02:45:06.975Z,7.79
2022-10-06T02:47:36.835Z,6.27
2022-10-06T02:50:07.408Z,7.03
2022-10-06T02:52:37.985Z,7.03
2022-10-06T02:55:08.007Z,7.03
2022-10-06T02:57:34.816Z,7.22
2022-10-06T03:00:01.457Z,7.22
2022-10-06T03:02:31.006Z,8.55
2022-10-06T03:04:57.881Z,6.84
2022-10-06T03:07:24.540Z,6.84
2022-10-06T03:09:51.203Z,7.98
2022-10-06T03:12:18.531Z,7.60
2022-10-06T03:14:45.203Z,7.60
2022-10-06T03:17:12.006Z,6.65
2022-10-06T03:19:38.773Z,6.65
2022-10-06T03:22:07.075Z,6.65
2022-10-06T03:24:33.747Z,7.22
2022-10-06T03:27:00.375Z,6.65
2022-10-06T03:29:28.572Z,6.46
2022-10-06T03:31:55.215Z,6.84
2022-10-06T03:34:21.859Z,7.22
2022-10-06T03:36:48.514Z,7.03
2022-10-06T03:39:15.130Z,7.03
2022-10-06T03:41:41.816Z,6.84
2022-10-06T03:44:08.800Z,6.84
2022-10-06T03:46:36.246Z,6.65
2022-10-06T03:49:04.283Z,7.22
2022-10-06T03:51:38.896Z,7.41
2022-10-06T03:54:07.824Z,6.27
2022-10-06T03:56:37.792Z,7.22
2022-10-06T03:59:08.800Z,7.03
2022-10-06T04:01:45.313Z,7.03
2022-10-06T04:04:13.587Z,6.65
2022-10-06T04:06:44.380Z,6.08
2022-10-06T04:09:15.534Z,5.70
2022-10-06T04:11:44.903Z,6.46
2022-10-06T04:14:15.503Z,5.13
2022-10-06T04:16:49.716Z,4.94
2022-10-06T04:19:17.888Z,4.56
2022-10-06T04:21:47.686Z,4.18
2022-10-06T04:24:17.060Z,3.80
2022-10-06T04:26:46.545Z,3.99
2022-10-06T04:29:14.931Z,3.42
2022-10-06T04:31:42.739Z,2.47
2022-10-06T04:34:15.212Z,2.66
2022-10-06T04:36:43.417Z,2.47
2022-10-06T04:39:12.799Z,2.28
2022-10-06T04:41:42.205Z,2.09
2022-10-06T04:44:09.123Z,2.09
2022-10-06T04:46:44.997Z,2.09
2022-10-06T04:49:18.929Z,1.90
2022-10-06T04:51:50.103Z,2.28
2022-10-06T04:54:18.644Z,1.90
2022-10-06T04:56:45.495Z,1.71
2022-10-06T04:59:12.141Z,1.90
2022-10-06T05:01:38.993Z,2.09
2022-10-06T05:04:06.674Z,1.52
2022-10-06T05:06:35.763Z,2.28
2022-10-06T05:09:07.120Z,1.52
2022-10-06T05:11:33.873Z,1.71
2022-10-06T05:14:01.156Z,1.71
2022-10-06T05:16:30.993Z,1.52
2022-10-06T05:18:58.515Z,1.90
2022-10-06T05:21:31.319Z,1.52
2022-10-06T05:23:58.761Z,1.71
2022-10-06T05:26:29.081Z,1.33
2022-10-06T05:28:55.945Z,1.33
2022-10-06T05:31:29.289Z,1.52
2022-10-06T05:33:58.236Z,1.33
2022-10-06T05:36:31.826Z,1.33
2022-10-06T05:38:59.182Z,1.33
2022-10-06T05:41:34.198Z,1.90
2022-10-06T05:44:01.049Z,1.14
2022-10-06T05:46:30.807Z,1.33
2022-10-06T05:49:12.735Z,1.52
2022-10-06T05:51:40.483Z,1.52
2022-10-06T05:54:07.750Z,1.33
2022-10-06T05:56:37.433Z,1.33
2022-10-06T05:59:05.627Z,1.71
2022-10-06T06:01:41.640Z,1.14
2022-10-06T06:04:12.363Z,1.14
2022-10-06T06:06:43.256Z,1.33
2022-10-06T06:09:13.868Z,1.71
2022-10-06T06:11:44.626Z,1.52
2022-10-06T06:14:40.707Z,1.33
2022-10-06T06:17:07.652Z,1.52
2022-10-06T06:19:34.320Z,1.33
2022-10-06T06:22:00.918Z,1.52
2022-10-06T06:24:27.498Z,1.71
2022-10-06T06:26:54.097Z,1.52
2022-10-06T06:29:20.768Z,1.33
2022-10-06T06:31:48.556Z,1.14
2022-10-06T06:34:15.285Z,1.14
2022-10-06T06:36:46.793Z,1.33
2022-10-06T06:39:16.508Z,0.95
2022-10-06T06:41:47.009Z,1.71
2022-10-06T06:44:14.268Z,1.33
2022-10-06T06:46:44.725Z,1.33
2022-10-06T06:49:12.280Z,1.33
2022-10-06T06:51:45.062Z,1.71
2022-10-06T06:54:12.814Z,1.52
2022-10-06T06:56:39.462Z,1.52
2022-10-06T06:59:09.064Z,1.71
2022-10-06T07:01:36.897Z,1.71
2022-10-06T07:04:05.283Z,1.71
2022-10-06T07:06:32.881Z,1.90
2022-10-06T07:09:00.520Z,1.90
2022-10-06T07:11:33.640Z,1.90
2022-10-06T07:14:07.607Z,1.71
2022-10-06T07:16:53.089Z,1.90
2022-10-06T07:19:57.112Z,1.90
2022-10-06T07:22:46.197Z,1.71
2022-10-06T07:25:33.058Z,1.90
2022-10-06T07:27:59.694Z,1.90
2022-10-06T07:30:29.215Z,2.28
2022-10-06T07:32:55.981Z,2.09
2022-10-06T07:35:25.054Z,2.28
2022-10-06T07:37:57.953Z,2.09
2022-10-06T07:40:24.967Z,2.28
2022-10-06T07:42:52.045Z,2.28
2022-10-06T07:45:38.674Z,2.09
2022-10-06T07:48:10.279Z,2.66
2022-10-06T07:50:41.986Z,2.09
2022-10-06T07:53:09.262Z,1.71
2022-10-06T07:55:41.648Z,1.90
2022-10-06T07:58:20.300Z,2.09
2022-10-06T08:00:48.811Z,1.71
2022-10-06T08:03:18.234Z,1.90
2022-10-06T08:05:56.635Z,2.09
2022-10-06T08:08:23.301Z,2.09
2022-10-06T08:10:56.035Z,1.71
2022-10-06T08:13:24.590Z,2.09
2022-10-06T08:15:52.449Z,1.90
2022-10-06T08:18:34.110Z,2.28
2022-10-06T08:21:16.118Z,1.71
2022-10-06T08:23:44.786Z,1.71
2022-10-06T08:26:14.301Z,2.47
2022-10-06T08:28:46.289Z,2.28
2022-10-06T08:31:15.669Z,1.90
2022-10-06T08:33:44.730Z,1.71
2022-10-06T08:36:16.654Z,1.71
2022-10-06T08:38:45.527Z,2.09
2022-10-06T08:41:48.433Z,1.90
2022-10-06T08:44:16.599Z,2.28
2022-10-06T08:47:11.713Z,1.71
2022-10-06T08:49:45.939Z,2.28
2022-10-06T08:53:14.124Z,2.09
2022-10-06T08:55:51.811Z,2.09
2022-10-06T08:58:46.198Z,2.28
2022-10-06T09:01:19.598Z,1.90
2022-10-06T09:03:49.017Z,2.28
2022-10-06T09:06:45.373Z,2.28
2022-10-06T09:09:25.345Z,1.90
2022-10-06T09:12:21.435Z,2.28
2022-10-06T09:15:04.546Z,1.90
2022-10-06T09:17:43.384Z,1.52
2022-10-06T09:20:34.125Z,1.52
2022-10-06T09:23:04.793Z,2.09
2022-10-06T09:25:32.149Z,1.71
2022-10-06T09:28:01.448Z,2.47
2022-10-06T09:30:28.228Z,2.28
2022-10-06T09:33:00.539Z,2.09
2022-10-06T09:35:31.499Z,2.85
2022-10-06T09:38:08.519Z,2.47
2022-10-06T09:40:51.287Z,2.09
2022-10-06T09:43:25.874Z,1.90
2022-10-06T09:45:58.286Z,2.28
2022-10-06T09:48:27.010Z,2.85
2022-10-06T09:51:14.715Z,1.90
2022-10-06T09:53:43.469Z,1.90
2022-10-06T09:56:20.153Z,2.28
2022-10-06T09:58:57.511Z,2.47
2022-10-06T10:01:28.696Z,2.47
2022-10-06T10:04:19.414Z,2.66
2022-10-06T10:06:48.188Z,2.09
2022-10-06T10:09:22.243Z,2.85
2022-10-06T10:12:25.092Z,2.28
2022-10-06T10:14:56.733Z,2.47
2022-10-06T10:17:44.767Z,2.28
2022-10-06T10:20:37.558Z,2.47
2022-10-06T10:23:21.876Z,1.90
2022-10-06T10:26:04.044Z,2.09
2022-10-06T10:29:08.459Z,2.28
2022-10-06T10:32:02.721Z,2.09
2022-10-06T10:34:59.642Z,2.09
2022-10-06T10:37:45.675Z,3.04
2022-10-06T10:40:32.064Z,1.90
2022-10-06T10:43:32.565Z,2.09
2022-10-06T10:46:19.208Z,1.90
2022-10-06T10:49:01.894Z,2.28
2022-10-06T10:51:49.950Z,2.28
2022-10-06T10:54:39.562Z,2.09
2022-10-06T10:57:16.321Z,2.85
2022-10-06T11:00:00.424Z,1.90
2022-10-06T11:02:28.746Z,2.09
2022-10-06T11:05:10.649Z,2.09
2022-10-06T11:07:49.558Z,2.47
2022-10-06T11:10:26.883Z,2.09
2022-10-06T11:13:14.384Z,3.04
2022-10-06T11:15:53.309Z,2.85
2022-10-06T11:18:35.280Z,2.09
2022-10-06T11:21:34.617Z,2.28
2022-10-06T11:24:13.149Z,2.47
2022-10-06T11:27:26.666Z,2.09
2022-10-06T11:30:11.433Z,2.09
2022-10-06T11:33:11.846Z,2.09
2022-10-06T11:35:43.203Z,2.66
2022-10-06T11:38:27.307Z,2.66
2022-10-06T11:41:22.803Z,2.66
2022-10-06T11:44:05.486Z,1.90
2022-10-06T11:46:45.105Z,2.09
2022-10-06T11:49:30.743Z,2.47
2022-10-06T11:52:10.264Z,2.28
2022-10-06T11:54:39.901Z,2.66
2022-10-06T11:57:30.602Z,2.85
2022-10-06T12:00:16.026Z,2.09
2022-10-06T12:02:46.854Z,2.28
2022-10-06T12:05:54.665Z,2.28
2022-10-06T12:08:03.151Z,2.09
2022-10-06T12:10:29.670Z,2.66
2022-10-06T12:13:39.977Z,2.28
2022-10-06T12:19:19.333Z,2.09
2022-10-06T12:22:07.139Z,2.28
2022-10-06T12:24:54.124Z,2.09
2022-10-06T12:27:58.766Z,2.47
2022-10-06T12:30:51.001Z,2.28
2022-10-06T12:33:33.816Z,2.28
2022-10-06T12:36:15.311Z,2.09
2022-10-06T12:39:05.049Z,1.90
2022-10-06T12:42:02.498Z,2.66
2022-10-06T12:44:40.391Z,1.90
2022-10-06T12:47:30.169Z,1.90
2022-10-06T12:50:25.970Z,1.90
2022-10-06T12:53:06.163Z,2.09
2022-10-06T12:55:51.620Z,2.85
2022-10-06T12:58:32.429Z,2.28
2022-10-06T13:01:04.359Z,1.90
2022-10-06T13:03:31.589Z,1.90
2022-10-06T13:06:07.452Z,2.09
2022-10-06T13:08:37.674Z,2.09
2022-10-06T13:11:24.806Z,1.71
2022-10-06T13:14:08.319Z,1.90
2022-10-06T13:16:40.913Z,2.47
2022-10-06T13:19:24.993Z,2.47
2022-10-06T13:21:51.702Z,1.90
2022-10-06T13:24:26.355Z,2.28
2022-10-06T13:26:54.078Z,1.71
2022-10-06T13:29:26.081Z,1.90
2022-10-06T13:31:56.757Z,1.71
2022-10-06T13:34:43.274Z,1.71
2022-10-06T13:37:15.613Z,1.90
2022-10-06T13:39:42.550Z,1.90
2022-10-06T13:42:20.782Z,2.47
2022-10-06T13:44:57.062Z,2.66
2022-10-06T13:47:29.693Z,2.28
2022-10-06T13:50:19.819Z,1.90
2022-10-06T13:52:48.948Z,1.71
2022-10-06T13:55:22.309Z,2.09
2022-10-06T13:58:03.379Z,1.90
2022-10-06T14:00:50.906Z,1.71
2022-10-06T14:03:28.434Z,2.09
2022-10-06T14:06:22.318Z,1.52
2022-10-06T14:08:57.842Z,2.47
2022-10-06T14:11:29.804Z,1.71
2022-10-06T14:14:04.219Z,1.52
2022-10-06T14:16:31.324Z,1.90
2022-10-06T14:19:04.553Z,1.71
2022-10-06T14:21:44.720Z,2.47
2022-10-06T14:24:18.948Z,2.09
2022-10-06T14:26:50.558Z,1.90
2022-10-06T14:29:19.072Z,2.28
2022-10-06T14:31:47.570Z,1.71
2022-10-06T14:34:19.027Z,2.09
2022-10-06T14:36:51.550Z,2.28
2022-10-06T14:39:19.514Z,1.90
2022-10-06T14:41:46.496Z,1.71
2022-10-06T14:44:15.551Z,2.09
2022-10-06T14:46:48.227Z,1.90
2022-10-06T14:49:15.853Z,1.90
2022-10-06T14:51:44.686Z,2.47
2022-10-06T14:54:12.526Z,1.71
2022-10-06T14:56:41.350Z,2.09
2022-10-06T14:59:16.875Z,1.90
2022-10-06T15:01:44.593Z,2.28
2022-10-06T15:04:15.340Z,1.52
2022-10-06T15:07:01.276Z,1.90
2022-10-06T15:09:30.806Z,2.28
2022-10-06T15:11:59.888Z,1.90
2022-10-06T15:14:28.497Z,2.09
2022-10-06T15:16:59.178Z,1.90
2022-10-06T15:19:26.662Z,2.28
2022-10-06T15:21:53.720Z,2.09
2022-10-06T15:24:20.824Z,1.90
2022-10-06T15:27:07.203Z,2.09
2022-10-06T15:29:35.311Z,2.85
2022-10-06T15:32:03.968Z,1.71
2022-10-06T15:34:34.333Z,2.47
2022-10-06T15:37:02.306Z,2.28
2022-10-06T15:39:34.207Z,1.90
2022-10-06T15:42:00.969Z,2.47
2022-10-06T15:44:34.484Z,1.90
2022-10-06T15:47:04.319Z,1.90
2022-10-06T15:49:32.753Z,1.71
2022-10-06T15:52:03.893Z,2.47
2022-10-06T15:54:38.629Z,2.28
2022-10-06T15:57:09.993Z,2.28
2022-10-06T15:59:39.895Z,2.66
2022-10-06T16:02:14.690Z,2.47
2022-10-06T16:04:43.472Z,2.09
2022-10-06T16:07:17.238Z,2.47
2022-10-06T16:09:47.730Z,2.09
2022-10-06T16:12:22.889Z,1.90
2022-10-06T16:14:49.585Z,1.71
2022-10-06T16:17:17.887Z,2.47
2022-10-06T16:19:45.518Z,2.85
2022-10-06T16:22:18.549Z,1.52
2022-10-06T16:24:45.360Z,1.90
2022-10-06T16:27:15.565Z,2.28
2022-10-06T16:29:42.513Z,2.28
2022-10-06T16:32:09.622Z,2.28
2022-10-06T16:34:36.438Z,2.28
2022-10-06T16:37:03.103Z,2.09
2022-10-06T16:39:29.720Z,1.90
2022-10-06T16:41:56.415Z,2.09
2022-10-06T16:44:23.057Z,2.09
2022-10-06T16:46:49.852Z,2.28
2022-10-06T16:49:16.603Z,2.47
2022-10-06T16:51:48.441Z,2.47
2022-10-06T16:54:19.069Z,2.47
2022-10-06T16:56:48.956Z,3.04
2022-10-06T16:59:22.395Z,2.66
2022-10-06T17:01:50.613Z,2.66
2022-10-06T17:04:24.301Z,3.04
2022-10-06T17:06:56.925Z,2.85
2022-10-06T17:09:27.012Z,3.04
2022-10-06T17:12:00.260Z,3.23
2022-10-06T17:14:30.648Z,3.04
2022-10-06T17:16:59.190Z,3.42
2022-10-06T17:19:29.235Z,3.04
2022-10-06T17:21:59.361Z,3.04
2022-10-06T17:24:28.604Z,3.23
2022-10-06T17:26:57.511Z,3.23
2022-10-06T17:29:24.664Z,2.85
2022-10-06T17:31:58.547Z,3.23
2022-10-06T17:34:30.732Z,2.66
2022-10-06T17:37:00.014Z,3.04
2022-10-06T17:39:26.812Z,2.85
2022-10-06T17:41:54.114Z,3.04
2022-10-06T17:44:26.899Z,3.04
2022-10-06T17:46:58.372Z,3.23
2022-10-06T17:49:25.706Z,3.61
2022-10-06T17:51:55.335Z,3.61
2022-10-06T17:54:25.682Z,3.23
2022-10-06T17:56:56.970Z,3.42
2022-10-06T17:59:28.833Z,3.99
2022-10-06T18:01:58.376Z,4.18
2022-10-06T18:04:26.529Z,3.61
2022-10-06T18:06:54.443Z,4.56
2022-10-06T18:09:22.444Z,3.80
2022-10-06T18:11:54.825Z,3.99
2022-10-06T18:14:25.350Z,4.37
2022-10-06T18:17:01.759Z,4.18
2022-10-06T18:19:34.846Z,3.99
2022-10-06T18:22:10.131Z,4.37
2022-10-06T18:24:37.994Z,3.61
2022-10-06T18:27:06.439Z,4.37
2022-10-06T18:29:38.772Z,3.99
2022-10-06T18:36:12.028Z,3.99
2022-10-06T18:37:41.233Z,3.42
2022-10-06T18:40:09.950Z,3.42
2022-10-06T18:42:39.079Z,3.61
2022-10-06T18:45:26.562Z,3.23
2022-10-06T18:48:12.131Z,2.66
2022-10-06T18:50:39.468Z,3.23
2022-10-06T18:53:06.168Z,2.85
2022-10-06T18:55:32.837Z,2.85
2022-10-06T18:57:59.466Z,2.85
2022-10-06T19:00:26.307Z,2.85
2022-10-06T19:02:55.418Z,2.47
2022-10-06T19:05:23.638Z,3.61
2022-10-06T19:07:53.919Z,2.85
2022-10-06T19:10:21.682Z,3.23
2022-10-06T19:12:48.592Z,2.85
2022-10-06T19:15:20.278Z,3.04
2022-10-06T19:17:48.185Z,3.23
2022-10-06T19:20:14.968Z,3.23
2022-10-06T19:22:43.409Z,3.23
2022-10-06T19:25:10.135Z,3.04
2022-10-06T19:27:36.876Z,3.42
2022-10-06T19:30:04.778Z,3.80
2022-10-06T19:32:34.446Z,3.23
2022-10-06T19:35:01.142Z,3.23
2022-10-06T19:37:30.666Z,3.61
2022-10-06T19:39:58.438Z,3.80
2022-10-06T19:42:44.382Z,3.04
2022-10-06T19:45:12.292Z,3.42
2022-10-06T19:47:40.511Z,4.18
2022-10-06T19:50:12.257Z,4.18
2022-10-06T19:52:41.169Z,3.61
2022-10-06T19:55:07.995Z,3.80
2022-10-06T19:57:34.776Z,3.61
2022-10-06T20:00:01.702Z,3.80
2022-10-06T20:02:28.811Z,3.61
2022-10-06T20:04:56.820Z,3.61
2022-10-06T20:07:27.468Z,3.61
2022-10-06T20:09:55.213Z,3.61
2022-10-06T20:12:25.314Z,4.18
2022-10-06T20:14:56.078Z,3.80
2022-10-06T20:17:23.138Z,3.61
2022-10-06T20:19:53.916Z,3.23
2022-10-06T20:22:24.348Z,3.61
2022-10-06T20:24:52.147Z,3.80
2022-10-06T20:27:18.809Z,3.61
2022-10-06T20:29:46.069Z,3.99
2022-10-06T20:32:12.763Z,3.61
2022-10-06T20:34:40.892Z,3.61
2022-10-06T20:37:07.559Z,3.99
2022-10-06T20:39:53.114Z,3.99
2022-10-06T20:42:21.404Z,3.80
2022-10-06T20:44:48.820Z,3.61
2022-10-06T20:47:19.979Z,3.42
2022-10-06T20:49:46.813Z,3.42
2022-10-06T20:52:16.939Z,3.42
2022-10-06T20:54:44.092Z,3.42
2022-10-06T20:57:10.883Z,3.80
2022-10-06T20:59:37.953Z,3.42
2022-10-06T21:02:06.785Z,3.42
2022-10-06T21:04:34.724Z,3.99
2022-10-06T21:07:04.019Z,3.61
2022-10-06T21:09:31.042Z,3.61
2022-10-06T21:11:57.772Z,3.23
2022-10-06T21:14:25.315Z,3.80
2022-10-06T21:16:52.850Z,4.56
2022-10-06T21:19:20.185Z,4.18
2022-10-06T21:21:53.400Z,3.61
2022-10-06T21:24:21.101Z,3.61
2022-10-06T21:26:48.784Z,3.99
2022-10-06T21:29:16.141Z,3.80
2022-10-06T21:31:45.118Z,4.18
2022-10-06T21:34:15.802Z,3.61
2022-10-06T21:36:44.281Z,4.75
2022-10-06T21:39:12.937Z,3.99
2022-10-06T21:41:40.636Z,4.18
2022-10-06T21:44:16.712Z,3.61
2022-10-06T21:46:50.474Z,3.99
2022-10-06T21:49:21.170Z,4.18
2022-10-06T21:51:52.387Z,4.37
2022-10-06T21:54:21.869Z,4.75
2022-10-06T21:56:49.629Z,3.99
2022-10-06T21:59:16.324Z,3.99
2022-10-06T22:01:45.490Z,4.94
2022-10-06T22:04:14.437Z,4.37
2022-10-06T22:06:43.668Z,4.94
2022-10-06T22:09:15.982Z,4.75
2022-10-06T22:11:43.488Z,4.18
2022-10-06T22:14:18.168Z,4.56
2022-10-06T22:16:45.482Z,4.37
2022-10-06T22:19:14.713Z,4.75
2022-10-06T22:21:45.446Z,4.56
2022-10-06T22:24:16.320Z,4.56
2022-10-06T22:26:45.184Z,4.56
2022-10-06T22:29:16.692Z,6.46
2022-10-06T22:31:46.645Z,5.51
2022-10-06T22:34:18.268Z,4.37
2022-10-06T22:36:45.173Z,4.56
2022-10-06T22:39:12.014Z,4.75
2022-10-06T22:41:38.725Z,4.75
2022-10-06T22:44:05.467Z,4.56
2022-10-06T22:46:35.596Z,4.94
2022-10-06T22:49:04.364Z,4.75
2022-10-06T22:51:31.756Z,5.51
2022-10-06T22:54:00.519Z,5.32
2022-10-06T22:56:30.279Z,4.94
2022-10-06T22:58:59.726Z,4.94
2022-10-06T23:01:29.061Z,5.70
2022-10-06T23:03:56.523Z,4.75
2022-10-06T23:06:24.581Z,4.75
2022-10-06T23:08:52.105Z,4.94
2022-10-06T23:11:21.530Z,5.51
2022-10-06T23:13:50.332Z,4.75
2022-10-06T23:16:19.306Z,4.56
2022-10-06T23:18:47.554Z,4.75
2022-10-06T23:21:27.135Z,5.70
2022-10-06T23:23:58.564Z,4.18
2022-10-06T23:26:26.022Z,5.32
2022-10-06T23:28:59.238Z,4.94
2022-10-06T23:31:28.497Z,4.75
2022-10-06T23:33:55.635Z,5.13
2022-10-06T23:36:22.615Z,5.32
2022-10-06T23:38:50.176Z,4.75
2022-10-06T23:41:17.376Z,5.32
2022-10-06T23:43:44.180Z,5.32
2022-10-06T23:46:11.983Z,4.94
2022-10-06T23:48:39.302Z,4.75
2022-10-06T23:51:13.522Z,5.13
2022-10-06T23:53:40.832Z,5.51
2022-10-06T23:56:08.787Z,5.70
2022-10-06T23:58:36.156Z,5.13
